Time;durP1;ratioP1;P1;durP2;ratioP2;P2;SDS_P1;SDS_P2;PMS_P1;PMS_P2;Temp;Humidity;BMP_temperature;BMP_pressure;BME280_temperature;BME280_humidity;BME280_pressure;Samples;Min_cycle;Max_cycle;Signal;HPM_P1;HPM_P2
2021/12/27 00:00:15;;;;;;;7.53;5.10;;;;;;;;;;4941109;29;20521;-90
2021/12/27 00:02:41;;;;;;;7.38;4.95;;;;;;;;;;4937608;29;20123;-89
2021/12/27 00:05:07;;;;;;;8.15;5.30;;;;;;;;;;4936850;29;20031;-89
2021/12/27 00:07:33;;;;;;;9.23;5.55;;;;;;;;;;4923850;29;20031;-88
2021/12/27 00:10:00;;;;;;;8.07;5.30;;;;;;;;;;4936996;29;20049;-89
2021/12/27 00:12:25;;;;;;;8.45;5.35;;;;;;;;;;4932922;29;20031;-89
2021/12/27 00:14:51;;;;;;;9.80;6.07;;;;;;;;;;4916140;29;20027;-89
2021/12/27 00:17:16;;;;;;;10.60;5.35;;;;;;;;;;4919871;29;20019;-90
2021/12/27 00:19:42;;;;;;;10.68;5.68;;;;;;;;;;4936477;29;20055;-90
2021/12/27 00:22:07;;;;;;;6.90;5.18;;;;;;;;;;4936905;29;20047;-87
2021/12/27 00:24:32;;;;;;;10.77;5.90;;;;;;;;;;4938797;29;20038;-89
2021/12/27 00:26:58;;;;;;;8.95;5.20;;;;;;;;;;4912783;29;20066;-87
2021/12/27 00:29:23;;;;;;;7.57;5.38;;;;;;;;;;4936720;29;20063;-89
2021/12/27 00:31:48;;;;;;;9.93;5.85;;;;;;;;;;4919581;29;20028;-88
2021/12/27 00:34:14;;;;;;;8.45;5.22;;;;;;;;;;4919938;29;20026;-89
2021/12/27 00:36:39;;;;;;;8.38;5.18;;;;;;;;;;4936382;29;20192;-89
2021/12/27 00:39:05;;;;;;;8.65;5.40;;;;;;;;;;4921875;29;20036;-90
2021/12/27 00:41:31;;;;;;;9.07;5.05;;;;;;;;;;4919223;29;20394;-89
2021/12/27 00:43:56;;;;;;;8.93;5.53;;;;;;;;;;4939948;29;20023;-89
2021/12/27 00:46:21;;;;;;;7.00;4.85;;;;;;;;;;4918482;29;20030;-88
2021/12/27 00:48:47;;;;;;;10.23;5.15;;;;;;;;;;4930044;29;20051;-89
2021/12/27 00:51:12;;;;;;;6.93;5.15;;;;;;;;;;4910079;29;20396;-89
2021/12/27 00:53:38;;;;;;;6.18;4.50;;;;;;;;;;4917855;29;20087;-88
2021/12/27 00:56:04;;;;;;;7.65;5.20;;;;;;;;;;4949449;28;20031;-88
2021/12/27 00:58:29;;;;;;;9.52;4.88;;;;;;;;;;4916410;29;20328;-89
2021/12/27 01:00:55;;;;;;;9.30;5.20;;;;;;;;;;4933933;29;20537;-88
2021/12/27 01:03:20;;;;;;;8.25;5.32;;;;;;;;;;4918157;29;20103;-87
2021/12/27 01:05:46;;;;;;;8.15;5.40;;;;;;;;;;4939619;29;20058;-87
2021/12/27 01:08:12;;;;;;;9.88;5.72;;;;;;;;;;4935756;29;20095;-88
2021/12/27 01:13:23;;;;;;;8.98;5.60;;;;;;;;;;4935604;29;20393;-88
2021/12/27 01:16:10;;;;;;;9.45;5.70;;;;;;;;;;4915290;29;20066;-89
2021/12/27 01:18:48;;;;;;;10.48;6.10;;;;;;;;;;4932650;29;20062;-87
2021/12/27 01:21:21;;;;;;;10.93;6.03;;;;;;;;;;4945232;29;20008;-88
2021/12/27 01:23:47;;;;;;;8.30;5.47;;;;;;;;;;4937041;29;20114;-90
2021/12/27 01:26:13;;;;;;;9.60;5.57;;;;;;;;;;4936895;29;20111;-89
2021/12/27 01:28:39;;;;;;;12.98;6.50;;;;;;;;;;4935657;29;20102;-89
2021/12/27 01:31:05;;;;;;;8.90;5.55;;;;;;;;;;4935583;29;20039;-89
2021/12/27 01:33:31;;;;;;;9.27;5.43;;;;;;;;;;4935230;29;20024;-89
2021/12/27 01:35:57;;;;;;;9.55;5.75;;;;;;;;;;4935537;29;20064;-89
2021/12/27 01:38:23;;;;;;;11.65;6.63;;;;;;;;;;4935609;29;20035;-89
2021/12/27 01:40:51;;;;;;;8.80;5.50;;;;;;;;;;4922548;29;20031;-88
2021/12/27 01:43:25;;;;;;;10.02;6.18;;;;;;;;;;4902749;29;20039;-88
2021/12/27 01:45:59;;;;;;;9.65;5.30;;;;;;;;;;4934031;29;20023;-88
2021/12/27 01:48:33;;;;;;;9.18;5.35;;;;;;;;;;4939021;29;20035;-89
2021/12/27 01:51:00;;;;;;;12.98;6.32;;;;;;;;;;4939049;29;20082;-87
2021/12/27 01:53:32;;;;;;;11.40;5.60;;;;;;;;;;4927712;29;20011;-88
2021/12/27 01:55:57;;;;;;;9.45;6.25;;;;;;;;;;4920360;29;20038;-88
2021/12/27 01:58:23;;;;;;;10.82;6.50;;;;;;;;;;4938694;29;20035;-88
2021/12/27 02:00:52;;;;;;;11.45;6.15;;;;;;;;;;4938901;29;20038;-88
2021/12/27 02:03:19;;;;;;;8.98;5.57;;;;;;;;;;4938979;29;20106;-88
2021/12/27 02:05:45;;;;;;;13.73;6.13;;;;;;;;;;4921846;29;20075;-88
2021/12/27 02:08:11;;;;;;;12.32;6.68;;;;;;;;;;4920928;29;20370;-87
2021/12/27 02:10:37;;;;;;;8.80;5.72;;;;;;;;;;4921398;29;20110;-89
2021/12/27 02:13:03;;;;;;;10.73;5.90;;;;;;;;;;4922373;29;20051;-88
2021/12/27 02:15:29;;;;;;;9.07;5.93;;;;;;;;;;4920656;29;20105;-88
2021/12/27 02:17:55;;;;;;;10.50;6.30;;;;;;;;;;4926248;29;20031;-89
2021/12/27 02:20:33;;;;;;;9.75;5.75;;;;;;;;;;4921583;29;20389;-88
2021/12/27 02:23:02;;;;;;;11.30;6.90;;;;;;;;;;4921240;29;20024;-87
2021/12/27 02:25:32;;;;;;;9.50;5.68;;;;;;;;;;4920481;29;20504;-88
2021/12/27 02:28:05;;;;;;;12.65;6.88;;;;;;;;;;4936564;29;20046;-88
2021/12/27 02:30:32;;;;;;;13.00;6.88;;;;;;;;;;4938134;29;20079;-88
2021/12/27 02:33:03;;;;;;;10.18;5.90;;;;;;;;;;4921837;29;20134;-88
2021/12/27 02:35:31;;;;;;;10.20;6.38;;;;;;;;;;4921409;29;20398;-90
2021/12/27 02:37:58;;;;;;;11.20;5.72;;;;;;;;;;4921815;29;20536;-89
2021/12/27 02:40:27;;;;;;;10.90;5.57;;;;;;;;;;4938297;29;20032;-89
2021/12/27 02:42:52;;;;;;;12.43;6.00;;;;;;;;;;4938901;29;20036;-89
2021/12/27 02:45:17;;;;;;;9.43;6.05;;;;;;;;;;4937267;29;20390;-89
2021/12/27 02:47:43;;;;;;;8.27;5.68;;;;;;;;;;4938232;29;20035;-88
2021/12/27 02:50:09;;;;;;;8.95;6.28;;;;;;;;;;4937683;29;20035;-88
2021/12/27 02:52:34;;;;;;;8.95;5.75;;;;;;;;;;4920743;29;20054;-88
2021/12/27 02:54:59;;;;;;;8.40;5.70;;;;;;;;;;4936829;29;20031;-88
2021/12/27 02:57:25;;;;;;;9.65;4.97;;;;;;;;;;4939288;29;20081;-88
2021/12/27 02:59:50;;;;;;;9.75;5.30;;;;;;;;;;4939771;29;20038;-88
2021/12/27 03:02:16;;;;;;;8.90;5.28;;;;;;;;;;4927758;29;20050;-87
2021/12/27 03:04:45;;;;;;;9.73;5.22;;;;;;;;;;4920613;29;20031;-88
2021/12/27 03:07:11;;;;;;;8.05;5.13;;;;;;;;;;4937971;29;21133;-88
2021/12/27 03:09:38;;;;;;;9.00;5.63;;;;;;;;;;4938160;29;20466;-88
2021/12/27 03:12:10;;;;;;;9.07;5.50;;;;;;;;;;4919962;29;20023;-89
2021/12/27 03:14:36;;;;;;;11.63;5.80;;;;;;;;;;4942834;29;20027;-88
2021/12/27 03:17:02;;;;;;;9.43;5.15;;;;;;;;;;4920451;29;20378;-88
2021/12/27 03:19:27;;;;;;;9.63;6.00;;;;;;;;;;4920462;29;20118;-88
2021/12/27 03:21:53;;;;;;;9.35;5.45;;;;;;;;;;4937038;29;20568;-87
2021/12/27 03:24:18;;;;;;;8.75;5.43;;;;;;;;;;4937020;29;20486;-87
2021/12/27 03:26:43;;;;;;;8.07;5.47;;;;;;;;;;4925086;29;20027;-87
2021/12/27 03:29:09;;;;;;;7.45;4.40;;;;;;;;;;4914688;29;20023;-87
2021/12/27 03:31:37;;;;;;;7.60;4.40;;;;;;;;;;4920228;29;20035;-87
2021/12/27 03:34:03;;;;;;;8.65;5.15;;;;;;;;;;4936823;29;20042;-87
2021/12/27 03:36:28;;;;;;;7.40;4.20;;;;;;;;;;4936922;29;20050;-88
2021/12/27 03:38:54;;;;;;;6.85;4.18;;;;;;;;;;4918874;29;20062;-87
2021/12/27 03:41:22;;;;;;;6.60;4.28;;;;;;;;;;4920179;29;20441;-88
2021/12/27 03:43:47;;;;;;;6.40;4.43;;;;;;;;;;4919653;29;20503;-88
2021/12/27 03:46:14;;;;;;;5.50;4.07;;;;;;;;;;4951690;28;20118;-89
2021/12/27 03:48:39;;;;;;;6.47;4.03;;;;;;;;;;4937194;29;20078;-89
2021/12/27 03:51:06;;;;;;;6.03;3.80;;;;;;;;;;4936972;29;20106;-89
2021/12/27 03:53:33;;;;;;;4.85;3.58;;;;;;;;;;4936852;29;20016;-89
2021/12/27 03:55:58;;;;;;;8.43;4.30;;;;;;;;;;4936704;29;20035;-88
2021/12/27 03:58:28;;;;;;;6.63;4.38;;;;;;;;;;4936619;29;20031;-88
2021/12/27 04:03:21;;;;;;;6.35;4.18;;;;;;;;;;4936638;29;20039;-89
2021/12/27 04:05:47;;;;;;;6.82;4.20;;;;;;;;;;4936387;29;20091;-88
2021/12/27 04:08:13;;;;;;;6.45;4.07;;;;;;;;;;4935096;29;20031;-88
2021/12/27 04:10:41;;;;;;;5.22;3.75;;;;;;;;;;4919711;29;20083;-88
2021/12/27 04:13:08;;;;;;;5.50;4.03;;;;;;;;;;4919424;29;20038;-88
2021/12/27 04:15:34;;;;;;;6.13;3.90;;;;;;;;;;4919319;29;20032;-88
2021/12/27 04:18:00;;;;;;;5.28;3.72;;;;;;;;;;4926649;29;20027;-88
2021/12/27 04:20:25;;;;;;;6.32;3.65;;;;;;;;;;4925560;29;20055;-89
2021/12/27 04:22:51;;;;;;;6.78;3.65;;;;;;;;;;4936437;29;20362;-87
2021/12/27 04:25:19;;;;;;;5.80;3.42;;;;;;;;;;4919401;29;20082;-90
2021/12/27 04:27:46;;;;;;;6.35;3.90;;;;;;;;;;4924517;29;20083;-87
2021/12/27 04:30:13;;;;;;;7.07;3.70;;;;;;;;;;4948797;28;20024;-89
2021/12/27 04:32:39;;;;;;;5.13;3.67;;;;;;;;;;4919221;29;20421;-89
2021/12/27 04:35:05;;;;;;;6.38;3.75;;;;;;;;;;4936567;29;20034;-88
2021/12/27 04:37:31;;;;;;;6.82;4.05;;;;;;;;;;4919226;29;20019;-88
2021/12/27 04:39:58;;;;;;;4.65;3.45;;;;;;;;;;4936458;29;20027;-88
2021/12/27 04:42:24;;;;;;;4.93;3.78;;;;;;;;;;4918220;29;20019;-88
2021/12/27 04:44:50;;;;;;;7.65;3.60;;;;;;;;;;4918664;29;20122;-88
2021/12/27 04:47:16;;;;;;;5.63;3.38;;;;;;;;;;4936206;29;20569;-88
2021/12/27 04:49:45;;;;;;;4.72;3.83;;;;;;;;;;4917488;29;20264;-87
2021/12/27 04:52:11;;;;;;;6.40;3.53;;;;;;;;;;4935980;29;20528;-87
2021/12/27 04:54:37;;;;;;;6.63;3.53;;;;;;;;;;4947787;29;20083;-87
2021/12/27 04:57:03;;;;;;;5.63;3.70;;;;;;;;;;4926835;29;20027;-87
2021/12/27 04:59:29;;;;;;;6.63;3.67;;;;;;;;;;4917102;29;20024;-88
2021/12/27 05:01:54;;;;;;;5.63;3.25;;;;;;;;;;4912269;29;20466;-88
2021/12/27 05:04:20;;;;;;;6.50;3.70;;;;;;;;;;4937176;29;20378;-87
2021/12/27 05:06:45;;;;;;;5.72;3.50;;;;;;;;;;4919628;29;20071;-88
2021/12/27 05:09:11;;;;;;;4.43;3.35;;;;;;;;;;4934921;29;20026;-89
2021/12/27 05:11:37;;;;;;;3.80;3.00;;;;;;;;;;4917927;29;20489;-88
2021/12/27 05:14:03;;;;;;;4.47;2.88;;;;;;;;;;4935210;29;20034;-88
2021/12/27 05:16:28;;;;;;;3.97;2.97;;;;;;;;;;4919281;29;20055;-88
2021/12/27 05:18:53;;;;;;;3.83;2.65;;;;;;;;;;4935663;29;20046;-89
2021/12/27 05:21:19;;;;;;;3.35;2.50;;;;;;;;;;4918519;29;20024;-89
2021/12/27 05:23:44;;;;;;;5.47;3.03;;;;;;;;;;4935564;29;20023;-87
2021/12/27 05:26:09;;;;;;;3.65;2.90;;;;;;;;;;4918932;29;20405;-88
2021/12/27 05:28:35;;;;;;;3.67;2.88;;;;;;;;;;4923307;29;20038;-89
2021/12/27 05:31:00;;;;;;;6.20;3.30;;;;;;;;;;4918011;29;20118;-88
2021/12/27 05:33:25;;;;;;;5.07;3.17;;;;;;;;;;4918693;29;20468;-87
2021/12/27 05:35:51;;;;;;;8.40;3.45;;;;;;;;;;4936390;29;20023;-87
2021/12/27 05:38:16;;;;;;;4.57;3.20;;;;;;;;;;4936606;29;20037;-87
2021/12/27 05:40:41;;;;;;;5.88;4.10;;;;;;;;;;4936892;29;20035;-88
2021/12/27 05:43:07;;;;;;;5.78;3.65;;;;;;;;;;4935130;29;20075;-86
2021/12/27 05:45:35;;;;;;;5.72;4.00;;;;;;;;;;4919131;29;20424;-87
2021/12/27 05:48:00;;;;;;;5.80;3.50;;;;;;;;;;4941218;29;20042;-88
2021/12/27 05:50:26;;;;;;;6.28;4.18;;;;;;;;;;4944338;29;20055;-87
2021/12/27 05:52:52;;;;;;;6.78;4.40;;;;;;;;;;4919314;29;20020;-88
2021/12/27 05:55:18;;;;;;;6.30;3.90;;;;;;;;;;4919466;29;20031;-87
2021/12/27 05:57:43;;;;;;;5.55;4.15;;;;;;;;;;4936257;29;20024;-88
2021/12/27 06:00:11;;;;;;;5.38;3.85;;;;;;;;;;4935622;29;20446;-87
2021/12/27 06:02:36;;;;;;;6.47;4.15;;;;;;;;;;4919240;29;20565;-87
2021/12/27 06:05:03;;;;;;;5.88;4.47;;;;;;;;;;4919369;29;20031;-87
2021/12/27 06:07:30;;;;;;;6.70;4.45;;;;;;;;;;4919354;29;20020;-88
2021/12/27 06:09:56;;;;;;;6.05;4.13;;;;;;;;;;4918911;29;20035;-88
2021/12/27 06:12:21;;;;;;;5.82;3.97;;;;;;;;;;4936015;29;20031;-88
2021/12/27 06:14:46;;;;;;;5.70;3.97;;;;;;;;;;4935833;29;20019;-88
2021/12/27 06:17:12;;;;;;;6.20;4.30;;;;;;;;;;4936406;29;20111;-88
2021/12/27 06:19:37;;;;;;;6.43;3.80;;;;;;;;;;4936532;29;20093;-89
2021/12/27 06:22:03;;;;;;;6.97;3.88;;;;;;;;;;4919414;29;20127;-88
2021/12/27 06:24:28;;;;;;;5.20;3.90;;;;;;;;;;4940520;29;20457;-88
2021/12/27 06:26:54;;;;;;;4.90;3.97;;;;;;;;;;4945941;29;20087;-86
2021/12/27 06:29:19;;;;;;;6.80;4.07;;;;;;;;;;4941109;29;20031;-87
2021/12/27 06:31:45;;;;;;;5.05;4.22;;;;;;;;;;4925247;29;20528;-89
2021/12/27 06:34:10;;;;;;;6.82;4.45;;;;;;;;;;4940843;29;20024;-88
2021/12/27 06:36:35;;;;;;;5.57;4.28;;;;;;;;;;4939415;29;20027;-89
2021/12/27 06:39:02;;;;;;;6.65;4.82;;;;;;;;;;4921482;29;20027;-88
2021/12/27 06:41:27;;;;;;;7.32;4.28;;;;;;;;;;4921059;29;20027;-87
2021/12/27 06:43:53;;;;;;;7.72;4.47;;;;;;;;;;4921209;29;20031;-88
2021/12/27 06:46:18;;;;;;;6.55;4.55;;;;;;;;;;4921251;29;20034;-87
2021/12/27 06:48:44;;;;;;;8.68;4.80;;;;;;;;;;4922006;29;20122;-87
2021/12/27 06:51:10;;;;;;;5.80;4.18;;;;;;;;;;4950600;29;20040;-89
2021/12/27 06:53:35;;;;;;;5.80;4.63;;;;;;;;;;4914272;29;20426;-87
2021/12/27 06:56:02;;;;;;;6.25;4.68;;;;;;;;;;4923868;29;20023;-88
2021/12/27 06:58:28;;;;;;;8.27;4.70;;;;;;;;;;4938641;29;20071;-86
2021/12/27 07:00:54;;;;;;;7.25;3.90;;;;;;;;;;4939476;29;20070;-86
2021/12/27 07:03:19;;;;;;;6.50;4.70;;;;;;;;;;4938630;29;20043;-87
2021/12/27 07:05:45;;;;;;;5.15;4.25;;;;;;;;;;4921796;29;20068;-90
2021/12/27 07:08:10;;;;;;;7.00;4.50;;;;;;;;;;4938628;29;20394;-88
2021/12/27 07:10:35;;;;;;;6.57;4.40;;;;;;;;;;4938430;29;20477;-90
2021/12/27 07:13:03;;;;;;;8.55;4.72;;;;;;;;;;4939644;29;20028;-89
2021/12/27 07:15:29;;;;;;;6.90;4.93;;;;;;;;;;4938259;29;20027;-88
2021/12/27 07:17:55;;;;;;;6.82;4.85;;;;;;;;;;4939964;29;20031;-87
2021/12/27 07:20:21;;;;;;;7.50;5.07;;;;;;;;;;4951101;29;20083;-88
2021/12/27 07:22:46;;;;;;;6.78;4.85;;;;;;;;;;4938575;29;20520;-88
2021/12/27 07:25:11;;;;;;;8.43;4.80;;;;;;;;;;4921411;29;20152;-87
2021/12/27 07:27:37;;;;;;;9.52;5.15;;;;;;;;;;4944248;29;20493;-87
2021/12/27 07:30:06;;;;;;;10.40;5.32;;;;;;;;;;4921559;29;20436;-88
2021/12/27 07:32:31;;;;;;;8.15;5.50;;;;;;;;;;4939146;29;20023;-87
2021/12/27 07:34:57;;;;;;;7.35;4.97;;;;;;;;;;4937539;29;20390;-88
2021/12/27 07:37:22;;;;;;;10.32;5.88;;;;;;;;;;4938779;29;20066;-88
2021/12/27 07:39:47;;;;;;;8.30;5.57;;;;;;;;;;4922462;29;20031;-87
2021/12/27 07:42:13;;;;;;;8.35;5.45;;;;;;;;;;4922371;29;20062;-88
2021/12/27 07:44:38;;;;;;;11.30;5.55;;;;;;;;;;4941131;29;20438;-88
2021/12/27 07:47:04;;;;;;;8.43;5.18;;;;;;;;;;4946866;29;20034;-87
2021/12/27 07:49:29;;;;;;;9.23;5.32;;;;;;;;;;4945976;29;20146;-87
2021/12/27 07:51:55;;;;;;;7.97;5.47;;;;;;;;;;4946839;29;20035;-88
2021/12/27 07:54:20;;;;;;;9.93;5.25;;;;;;;;;;4939802;29;20020;-88
2021/12/27 07:56:46;;;;;;;8.50;5.25;;;;;;;;;;4923501;29;20035;-88
2021/12/27 07:59:11;;;;;;;7.15;5.32;;;;;;;;;;4940961;29;20019;-86
2021/12/27 08:01:38;;;;;;;6.97;4.97;;;;;;;;;;4921425;29;20050;-88
2021/12/27 08:04:05;;;;;;;9.55;5.63;;;;;;;;;;4938280;29;20071;-87
2021/12/27 08:06:31;;;;;;;11.10;5.55;;;;;;;;;;4939471;29;20019;-88
2021/12/27 08:08:57;;;;;;;10.02;5.95;;;;;;;;;;4923054;29;20038;-87
2021/12/27 08:11:24;;;;;;;9.93;5.45;;;;;;;;;;4920899;29;20023;-87
2021/12/27 08:13:50;;;;;;;9.57;5.88;;;;;;;;;;4921161;29;20032;-87
2021/12/27 08:16:17;;;;;;;7.05;5.20;;;;;;;;;;4936845;29;20042;-87
2021/12/27 08:18:42;;;;;;;7.30;4.97;;;;;;;;;;4936749;29;20039;-87
2021/12/27 08:21:08;;;;;;;7.07;5.03;;;;;;;;;;4921332;29;20031;-89
2021/12/27 08:23:33;;;;;;;8.05;5.53;;;;;;;;;;4941261;29;20803;-87
2021/12/27 08:25:59;;;;;;;8.55;4.95;;;;;;;;;;4932356;29;20024;-87
2021/12/27 08:28:24;;;;;;;8.95;5.20;;;;;;;;;;4944133;29;20031;-87
2021/12/27 08:30:50;;;;;;;7.95;4.95;;;;;;;;;;4936237;29;20032;-88
2021/12/27 08:33:15;;;;;;;8.77;5.25;;;;;;;;;;4935552;29;20027;-87
2021/12/27 08:35:41;;;;;;;7.22;4.82;;;;;;;;;;4937494;29;20493;-87
2021/12/27 08:38:07;;;;;;;8.00;5.07;;;;;;;;;;4937404;29;20404;-87
2021/12/27 08:40:32;;;;;;;6.72;4.97;;;;;;;;;;4919668;29;20023;-87
2021/12/27 08:42:58;;;;;;;6.53;4.60;;;;;;;;;;4917033;29;20042;-87
2021/12/27 08:45:24;;;;;;;6.60;4.53;;;;;;;;;;4920174;29;20039;-87
2021/12/27 08:47:49;;;;;;;8.65;4.95;;;;;;;;;;4937118;29;20028;-86
2021/12/27 08:50:17;;;;;;;5.90;4.75;;;;;;;;;;4939188;29;20362;-88
2021/12/27 08:52:44;;;;;;;6.60;4.93;;;;;;;;;;4937097;29;20042;-87
2021/12/27 08:55:12;;;;;;;6.50;4.32;;;;;;;;;;4919715;29;20055;-87
2021/12/27 08:57:38;;;;;;;5.90;3.90;;;;;;;;;;4919420;29;20163;-88
2021/12/27 09:00:07;;;;;;;5.50;4.20;;;;;;;;;;4935066;29;20027;-87
2021/12/27 09:02:33;;;;;;;10.13;4.28;;;;;;;;;;4936203;29;20023;-88
2021/12/27 09:04:58;;;;;;;5.50;4.10;;;;;;;;;;4937088;29;20024;-87
2021/12/27 09:07:23;;;;;;;7.22;4.72;;;;;;;;;;4920230;29;20023;-87
2021/12/27 09:09:49;;;;;;;6.70;4.10;;;;;;;;;;4936270;29;20458;-87
2021/12/27 09:12:14;;;;;;;6.38;4.47;;;;;;;;;;4937300;29;20032;-87
2021/12/27 09:14:40;;;;;;;7.57;4.65;;;;;;;;;;4937185;28;20112;-87
2021/12/27 09:17:05;;;;;;;9.25;4.15;;;;;;;;;;4959637;28;20032;-87
2021/12/27 09:19:31;;;;;;;7.20;4.00;;;;;;;;;;4959641;28;20044;-87
2021/12/27 09:21:56;;;;;;;6.05;4.10;;;;;;;;;;4959082;29;20020;-87
2021/12/27 09:24:22;;;;;;;7.30;4.68;;;;;;;;;;4944202;29;20091;-88
2021/12/27 09:26:47;;;;;;;6.03;4.35;;;;;;;;;;4961542;28;20022;-87
2021/12/27 09:29:13;;;;;;;7.50;4.85;;;;;;;;;;4939182;29;20069;-87
2021/12/27 09:31:38;;;;;;;6.60;4.50;;;;;;;;;;4954916;28;20023;-86
2021/12/27 09:34:04;;;;;;;7.05;4.10;;;;;;;;;;4959115;28;20030;-87
2021/12/27 09:36:30;;;;;;;6.85;4.40;;;;;;;;;;4959352;28;20019;-87
2021/12/27 09:38:55;;;;;;;7.45;4.10;;;;;;;;;;4959123;28;20126;-87
2021/12/27 09:41:20;;;;;;;6.45;4.50;;;;;;;;;;4942898;28;20019;-86
2021/12/27 10:10:58;;;;;;;5.30;2.97;;;;;;;;;;4871769;29;20043;-88
2021/12/27 10:13:23;;;;;;;3.78;2.63;;;;;;;;;;4890261;29;20605;-88
2021/12/27 10:15:49;;;;;;;3.85;2.75;;;;;;;;;;4937928;29;20193;-89
2021/12/27 10:18:16;;;;;;;3.70;2.78;;;;;;;;;;4938994;29;20031;-88
2021/12/27 10:20:44;;;;;;;5.38;3.28;;;;;;;;;;4938746;29;20027;-88
2021/12/27 10:23:09;;;;;;;5.28;3.70;;;;;;;;;;4931725;29;20019;-88
2021/12/27 10:25:35;;;;;;;5.15;3.67;;;;;;;;;;4923619;29;20095;-88
2021/12/27 10:28:03;;;;;;;6.63;3.78;;;;;;;;;;4924799;29;20046;-90
2021/12/27 10:30:31;;;;;;;3.72;3.25;;;;;;;;;;4947594;29;20023;-87
2021/12/27 10:33:19;;;;;;;6.07;3.20;;;;;;;;;;4943180;29;20072;-89
2021/12/27 10:36:03;;;;;;;6.65;4.18;;;;;;;;;;4928901;29;20062;-87
2021/12/27 10:38:40;;;;;;;4.80;3.50;;;;;;;;;;4939086;29;20020;-89
2021/12/27 10:41:09;;;;;;;4.55;3.55;;;;;;;;;;4939856;29;20032;-87
2021/12/27 10:43:41;;;;;;;6.55;4.35;;;;;;;;;;4940406;29;20055;-87
2021/12/27 10:46:10;;;;;;;7.22;3.92;;;;;;;;;;4923033;29;20126;-86
2021/12/27 10:48:39;;;;;;;4.72;3.60;;;;;;;;;;4921681;29;20472;-87
2021/12/27 10:51:06;;;;;;;6.13;3.67;;;;;;;;;;4940130;29;20550;-89
2021/12/27 10:53:55;;;;;;;5.15;2.80;;;;;;;;;;4922074;29;20139;-89
2021/12/27 10:56:24;;;;;;;5.53;2.60;;;;;;;;;;4944305;29;20022;-89
2021/12/27 10:58:54;;;;;;;4.05;2.55;;;;;;;;;;4940810;29;20106;-89
2021/12/27 11:01:22;;;;;;;9.02;2.88;;;;;;;;;;4913930;29;20023;-87
2021/12/27 11:03:52;;;;;;;2.33;2.13;;;;;;;;;;4940895;29;20089;-88
2021/12/27 11:06:29;;;;;;;3.83;3.00;;;;;;;;;;4938710;29;20027;-88
2021/12/27 11:08:55;;;;;;;3.75;2.28;;;;;;;;;;4939988;29;20035;-89
2021/12/27 11:11:23;;;;;;;3.72;2.40;;;;;;;;;;4940403;29;20052;-88
2021/12/27 11:13:52;;;;;;;4.35;2.42;;;;;;;;;;4940422;29;20397;-89
2021/12/27 11:16:17;;;;;;;3.25;2.30;;;;;;;;;;4940283;29;20401;-88
2021/12/27 11:18:43;;;;;;;4.32;2.13;;;;;;;;;;4923710;29;20465;-89
2021/12/27 11:21:18;;;;;;;2.17;1.95;;;;;;;;;;4941086;29;20078;-87
2021/12/27 11:23:48;;;;;;;2.83;2.10;;;;;;;;;;4935081;29;20016;-87
2021/12/27 11:26:21;;;;;;;3.10;2.03;;;;;;;;;;4940367;29;20028;-88
2021/12/27 11:28:47;;;;;;;2.83;2.22;;;;;;;;;;4940562;29;20069;-88
2021/12/27 11:31:26;;;;;;;3.78;2.30;;;;;;;;;;4941374;29;20031;-87
2021/12/27 11:33:55;;;;;;;3.25;2.50;;;;;;;;;;4937265;29;20020;-90
2021/12/27 11:36:23;;;;;;;2.92;2.30;;;;;;;;;;4940782;29;20646;-89
2021/12/27 11:38:48;;;;;;;3.40;2.50;;;;;;;;;;4949084;29;20088;-90
2021/12/27 11:41:34;;;;;;;3.53;2.33;;;;;;;;;;4941881;29;20027;-88
2021/12/27 11:44:08;;;;;;;2.90;2.30;;;;;;;;;;4923525;29;20034;-86
2021/12/27 11:46:57;;;;;;;3.40;2.58;;;;;;;;;;4924092;29;20027;-86
2021/12/27 11:49:35;;;;;;;2.65;2.17;;;;;;;;;;4935388;29;20047;-88
2021/12/27 11:52:22;;;;;;;3.08;2.35;;;;;;;;;;4933751;29;20027;-88
2021/12/27 11:54:50;;;;;;;4.18;2.45;;;;;;;;;;4925706;29;20023;-89
2021/12/27 11:57:37;;;;;;;4.32;2.65;;;;;;;;;;4938669;29;20472;-88
2021/12/27 12:00:29;;;;;;;4.85;3.80;;;;;;;;;;4920313;29;20024;-88
2021/12/27 12:03:02;;;;;;;4.47;3.70;;;;;;;;;;4921912;29;20100;-88
2021/12/27 12:05:51;;;;;;;5.63;4.10;;;;;;;;;;4938465;29;20469;-88
2021/12/27 12:08:28;;;;;;;6.32;3.80;;;;;;;;;;4935273;29;20037;-88
2021/12/27 12:11:02;;;;;;;8.60;4.25;;;;;;;;;;4930910;29;20444;-88
2021/12/27 12:13:49;;;;;;;7.38;3.90;;;;;;;;;;4938497;29;20051;-89
2021/12/27 12:16:19;;;;;;;5.57;3.70;;;;;;;;;;4921542;29;20040;-87
2021/12/27 12:18:44;;;;;;;9.05;5.10;;;;;;;;;;4927416;29;20110;-89
2021/12/27 12:21:28;;;;;;;6.32;4.40;;;;;;;;;;4921780;29;20028;-87
2021/12/27 12:23:59;;;;;;;5.35;3.78;;;;;;;;;;4934656;29;20087;-88
2021/12/27 12:26:25;;;;;;;8.00;3.47;;;;;;;;;;4941679;28;20024;-89
2021/12/27 12:29:01;;;;;;;5.88;3.53;;;;;;;;;;4939427;29;20290;-89
2021/12/27 12:31:30;;;;;;;5.00;3.60;;;;;;;;;;4922277;29;20512;-87
2021/12/27 12:34:07;;;;;;;5.18;3.50;;;;;;;;;;4921230;29;20031;-88
2021/12/27 12:36:54;;;;;;;4.85;3.67;;;;;;;;;;4938456;29;20031;-90
2021/12/27 12:39:22;;;;;;;6.47;4.13;;;;;;;;;;4938670;29;20461;-89
2021/12/27 12:41:49;;;;;;;5.35;3.70;;;;;;;;;;4938229;29;20182;-88
2021/12/27 12:44:14;;;;;;;6.10;3.47;;;;;;;;;;4912501;29;20028;-89
2021/12/27 12:46:49;;;;;;;5.78;4.00;;;;;;;;;;4940852;29;20123;-87
2021/12/27 12:49:19;;;;;;;6.78;3.90;;;;;;;;;;4937506;29;20043;-89
2021/12/27 12:51:52;;;;;;;8.35;4.85;;;;;;;;;;4939118;29;20052;-89
2021/12/27 12:54:22;;;;;;;6.65;4.05;;;;;;;;;;4939010;29;20367;-87
2021/12/27 12:56:52;;;;;;;6.60;3.88;;;;;;;;;;4939677;29;20027;-90
2021/12/27 12:59:21;;;;;;;5.53;3.30;;;;;;;;;;4902487;29;20501;-89
2021/12/27 13:01:57;;;;;;;5.07;3.70;;;;;;;;;;4964356;28;20067;-87
2021/12/27 13:04:22;;;;;;;4.15;3.28;;;;;;;;;;4919280;29;20096;-87
2021/12/27 13:06:48;;;;;;;5.38;3.63;;;;;;;;;;4919945;29;20401;-88
2021/12/27 13:09:13;;;;;;;5.35;3.70;;;;;;;;;;4920415;29;20023;-87
2021/12/27 13:11:38;;;;;;;7.65;4.05;;;;;;;;;;4920280;29;20023;-88
2021/12/27 13:14:05;;;;;;;7.20;4.10;;;;;;;;;;4938722;29;20058;-87
2021/12/27 13:16:31;;;;;;;6.55;3.97;;;;;;;;;;4939500;29;20418;-87
2021/12/27 13:19:06;;;;;;;6.00;3.67;;;;;;;;;;4939308;29;20408;-86
2021/12/27 13:21:32;;;;;;;5.53;3.90;;;;;;;;;;4920955;29;20025;-87
2021/12/27 13:24:03;;;;;;;5.55;3.42;;;;;;;;;;4938557;29;20032;-89
2021/12/27 13:26:28;;;;;;;4.15;3.00;;;;;;;;;;4940917;29;20030;-88
2021/12/27 13:28:54;;;;;;;2.63;2.10;;;;;;;;;;4941195;29;20028;-89
2021/12/27 13:31:23;;;;;;;3.00;2.30;;;;;;;;;;4939303;29;20271;-87
2021/12/27 13:33:48;;;;;;;4.97;2.50;;;;;;;;;;4942136;29;20019;-87
2021/12/27 13:36:21;;;;;;;3.92;2.78;;;;;;;;;;4926806;29;20034;-86
2021/12/27 13:39:15;;;;;;;4.95;2.63;;;;;;;;;;4954945;29;20110;-87
2021/12/27 13:41:42;;;;;;;2.47;2.28;;;;;;;;;;4957814;29;20051;-88
2021/12/27 13:44:10;;;;;;;4.43;2.20;;;;;;;;;;4956838;29;20023;-87
2021/12/27 13:46:46;;;;;;;3.08;2.38;;;;;;;;;;4942184;29;20035;-89
2021/12/27 13:49:12;;;;;;;2.25;2.05;;;;;;;;;;4931115;29;20027;-89
2021/12/27 13:51:37;;;;;;;3.88;2.70;;;;;;;;;;4943745;29;20354;-89
2021/12/27 13:54:05;;;;;;;2.42;2.20;;;;;;;;;;4943181;29;20023;-88
2021/12/27 13:56:34;;;;;;;2.60;2.20;;;;;;;;;;4941205;29;20028;-86
2021/12/27 13:59:09;;;;;;;4.20;2.40;;;;;;;;;;4939596;29;20030;-87
2021/12/27 14:01:36;;;;;;;5.68;2.17;;;;;;;;;;4940852;29;20052;-88
2021/12/27 14:04:32;;;;;;;2.95;1.77;;;;;;;;;;4925053;29;20079;-87
2021/12/27 14:07:00;;;;;;;3.20;2.25;;;;;;;;;;4926918;29;20050;-87
2021/12/27 14:09:29;;;;;;;4.40;2.50;;;;;;;;;;4940585;29;20031;-87
2021/12/27 14:12:00;;;;;;;4.05;2.67;;;;;;;;;;4932248;29;20087;-89
2021/12/27 14:14:47;;;;;;;3.97;2.50;;;;;;;;;;4942156;29;20031;-88
2021/12/27 14:17:14;;;;;;;3.50;2.45;;;;;;;;;;4943689;29;20024;-89
2021/12/27 14:19:41;;;;;;;2.90;2.42;;;;;;;;;;4942700;29;20036;-89
2021/12/27 14:22:11;;;;;;;3.45;2.40;;;;;;;;;;4925273;29;20036;-89
2021/12/27 14:24:40;;;;;;;8.23;2.60;;;;;;;;;;4944566;29;20031;-89
2021/12/27 14:27:16;;;;;;;4.45;2.78;;;;;;;;;;4939833;29;20052;-89
2021/12/27 14:29:42;;;;;;;3.75;2.30;;;;;;;;;;4945512;29;20039;-88
2021/12/27 14:32:07;;;;;;;5.25;2.17;;;;;;;;;;4942512;29;20028;-88
2021/12/27 14:34:59;;;;;;;3.78;2.45;;;;;;;;;;4928593;29;20047;-87
2021/12/27 14:37:25;;;;;;;3.55;2.50;;;;;;;;;;4908464;29;20036;-88
2021/12/27 14:39:51;;;;;;;2.58;2.20;;;;;;;;;;4941737;29;20421;-88
2021/12/27 14:42:17;;;;;;;4.07;2.80;;;;;;;;;;4949170;29;20466;-87
2021/12/27 14:44:49;;;;;;;4.68;2.78;;;;;;;;;;4941378;29;20051;-87
2021/12/27 14:47:16;;;;;;;3.38;2.45;;;;;;;;;;4943596;29;20642;-86
2021/12/27 14:49:43;;;;;;;5.00;2.60;;;;;;;;;;4940831;29;20031;-87
2021/12/27 14:52:09;;;;;;;3.67;2.35;;;;;;;;;;4922620;29;20039;-88
2021/12/27 14:54:35;;;;;;;4.88;2.53;;;;;;;;;;4934580;29;20103;-88
2021/12/27 14:57:01;;;;;;;4.28;2.53;;;;;;;;;;4936085;29;20028;-89
2021/12/27 14:59:26;;;;;;;3.45;2.60;;;;;;;;;;4947243;29;20028;-88
2021/12/27 15:01:52;;;;;;;4.25;2.55;;;;;;;;;;4942528;29;20028;-86
2021/12/27 15:04:18;;;;;;;5.07;3.10;;;;;;;;;;4941154;29;20032;-89
2021/12/27 15:06:43;;;;;;;3.42;2.67;;;;;;;;;;4922085;29;20031;-88
2021/12/27 15:09:09;;;;;;;4.03;2.60;;;;;;;;;;4925301;29;20401;-88
2021/12/27 15:11:34;;;;;;;4.55;2.70;;;;;;;;;;4925405;29;20023;-88
2021/12/27 15:13:59;;;;;;;4.40;2.85;;;;;;;;;;4941440;29;20072;-87
2021/12/27 15:16:25;;;;;;;4.72;3.10;;;;;;;;;;4925484;29;20075;-87